Terminal Aerodrome Forecast
Issued by NWS Brownsville, TX

Home | Current Version | Previous Version | Text Only | Print | Product List | Glossary On
Versions: 1 2 3 4 5 6 7 8 9 10 11 12 13 14 15 16 17 18 19 20 21 22 23 24 25
000
FTUS44 KBRO 022000 AAB
TAFMFE
TAF AMD
KMFE 022043Z 0221/0318 08009KT P6SM SHRA SCT045 BKN060 BKN070
      TEMPO 0221/0224 10018G30KT 5SM SHRA BKN040
     FM030000 11011KT P6SM SHRA SCT030 BKN050
      TEMPO 0302/0306 VRB20G32KT 5SM SHRA BKN030
     FM030600 14009KT P6SM SHRA BKN040 OVC090
      TEMPO 0306/0310 VRB25G34KT BKN025=

USA.gov is the U.S. government's official web portal to all federal, state and local government web resources and services.